Terminal Aerodrome Forecast
Issued by NWS

Home | Current Version | Previous Version | Text Only | Print | Product List | Glossary On
Versions: 1 2 3 4 5 6 7 8 9 10 11 12 13 14 15 16
384
FTUS44 KLZK 230405 AAA
TAFLIT
TAF AMD
KLIT 230405Z 2304/2324 31015G25KT P6SM BKN015 OVC040
      TEMPO 2304/2307 SCT025 BKN040
     FM230800 32014G24KT P6SM BKN025 OVC050
     FM231500 32008G15KT P6SM SCT100 BKN250=

USA.gov is the U.S. government's official web portal to all federal, state and local government web resources and services.